Etusivu
METAR-TAF:

METAR-TAF

Lentoasemat :

Kairon kansainvälinen lentoasema

Kairo, Egypti

Leveyspiiri: 30-08N, Pituuspiiri: 031-24E, korkeus merenpinnasta: 64 m

Tämänhetkinen sää

Tämä raportti tehtiin 16 minuuttia sitten, kello 11.30 UTC
Tuuli 9 kn luoteesta
Lämpötila 36°C
Kosteus 33%
Ilmanpaine 1006 hPa
Näkyvyys 10 km tai enemmän
ei pilviä alle 1500 m:ssä eikä cumulonimbus-pilviä

METAR: HECA 231130Z 32009KT CAVOK 36/17 Q1006 NOSIG

Aika: 13:46 (11:46 UTC)

Sääennuste

Tämä raportti tehtiin 46 minuuttia sitten, kello 11.00 UTC
Ennuste voimassa 23. päivästä klo 12 UTC - 24. päivään klo 18 UTC
Tuuli 10 kn luoteesta
Näkyvyys 10 km tai enemmän
ei pilviä alle 1500 m:ssä eikä cumulonimbus-pilviä
Todennäköisyys 40% :
Ajoittain
24. päivästä klo 00 UTC - 24. päivään klo 06 UTC
Tuuli 3 kn eri suunnista
Näkyvyys: 4000 m
usvaa

TAF: HECA 231100Z 2312/2418 32010KT CAVOK PROB40 TEMPO 2400/2406 VRB03KT 4000 HZ NSC

Säähavainnot ja -ennusteet yli 4000 lentoasemalta (METAR- ja TAF-raportit).

Käytössä olevat sääasemat on merkitty karttaan keltaisilla ja punaisilla pisteillä.

Aseta hiiri pisteen päälle nähdäksesi sääaseman nimen.

Klikkaa sitten nähdäksesi säähavainnot ja -ennusteet.

Kartan vaihtaminen: klikkaa mustalla rastilla varustettuja vihreitä pisteitä, niin voit zoomata sisään; viivalla varustettua vihreää pistettä, niin voit zoomata ulos tai vihreitä nuolia, niin pääset viereisille kartoille.


METAR-TAF: